sensor_id;sensor_type;location;lat;lon;timestamp;P1;durP1;ratioP1;P2;durP2;ratioP2
57023;SDS011;42916;54.346;18.562;2023-04-15T00:00:43;18.20;;;13.50;;
57023;SDS011;42916;54.346;18.562;2023-04-15T00:03:14;17.40;;;13.80;;
57023;SDS011;42916;54.346;18.562;2023-04-15T00:05:40;18.70;;;14.40;;
57023;SDS011;42916;54.346;18.562;2023-04-15T00:08:07;19.20;;;13.00;;
57023;SDS011;42916;54.346;18.562;2023-04-15T00:10:34;20.80;;;14.30;;
57023;SDS011;42916;54.346;18.562;2023-04-15T00:13:01;17.60;;;14.00;;
57023;SDS011;42916;54.346;18.562;2023-04-15T00:15:28;21.50;;;13.50;;
57023;SDS011;42916;54.346;18.562;2023-04-15T00:17:55;17.80;;;12.50;;
57023;SDS011;42916;54.346;18.562;2023-04-15T00:20:22;19.60;;;13.30;;
57023;SDS011;42916;54.346;18.562;2023-04-15T00:22:49;20.90;;;14.20;;
57023;SDS011;42916;54.346;18.562;2023-04-15T00:25:16;23.70;;;15.20;;
57023;SDS011;42916;54.346;18.562;2023-04-15T00:27:43;18.90;;;13.80;;
57023;SDS011;42916;54.346;18.562;2023-04-15T00:30:10;18.80;;;13.40;;
57023;SDS011;42916;54.346;18.562;2023-04-15T00:32:37;19.90;;;13.60;;
57023;SDS011;42916;54.346;18.562;2023-04-15T00:35:03;18.00;;;11.80;;
57023;SDS011;42916;54.346;18.562;2023-04-15T00:37:30;17.90;;;13.30;;
57023;SDS011;42916;54.346;18.562;2023-04-15T00:39:57;20.00;;;13.40;;
57023;SDS011;42916;54.346;18.562;2023-04-15T00:42:24;21.20;;;14.50;;
57023;SDS011;42916;54.346;18.562;2023-04-15T00:44:51;22.00;;;13.90;;
57023;SDS011;42916;54.346;18.562;2023-04-15T00:47:18;19.10;;;12.60;;
57023;SDS011;42916;54.346;18.562;2023-04-15T00:49:46;18.50;;;13.30;;
57023;SDS011;42916;54.346;18.562;2023-04-15T00:52:13;19.50;;;13.60;;
57023;SDS011;42916;54.346;18.562;2023-04-15T00:54:43;18.40;;;13.60;;
57023;SDS011;42916;54.346;18.562;2023-04-15T00:57:10;18.40;;;13.70;;
57023;SDS011;42916;54.346;18.562;2023-04-15T00:59:37;19.70;;;13.60;;
57023;SDS011;42916;54.346;18.562;2023-04-15T01:02:04;17.10;;;13.30;;
57023;SDS011;42916;54.346;18.562;2023-04-15T01:04:31;18.60;;;13.20;;
57023;SDS011;42916;54.346;18.562;2023-04-15T01:06:58;20.10;;;13.20;;
57023;SDS011;42916;54.346;18.562;2023-04-15T01:09:24;19.10;;;13.70;;
57023;SDS011;42916;54.346;18.562;2023-04-15T01:11:51;21.10;;;15.30;;
57023;SDS011;42916;54.346;18.562;2023-04-15T01:14:19;19.20;;;13.00;;
57023;SDS011;42916;54.346;18.562;2023-04-15T01:16:46;21.00;;;14.20;;
57023;SDS011;42916;54.346;18.562;2023-04-15T01:19:13;18.10;;;12.30;;
57023;SDS011;42916;54.346;18.562;2023-04-15T01:21:43;21.20;;;14.70;;
57023;SDS011;42916;54.346;18.562;2023-04-15T01:24:10;21.40;;;13.60;;
57023;SDS011;42916;54.346;18.562;2023-04-15T01:26:39;20.40;;;14.00;;
57023;SDS011;42916;54.346;18.562;2023-04-15T01:29:08;19.40;;;14.00;;
57023;SDS011;42916;54.346;18.562;2023-04-15T01:31:50;21.30;;;14.00;;
57023;SDS011;42916;54.346;18.562;2023-04-15T01:34:18;22.20;;;15.10;;
57023;SDS011;42916;54.346;18.562;2023-04-15T01:36:46;21.60;;;14.20;;
57023;SDS011;42916;54.346;18.562;2023-04-15T01:39:24;17.30;;;12.40;;
57023;SDS011;42916;54.346;18.562;2023-04-15T01:41:56;19.30;;;13.50;;
57023;SDS011;42916;54.346;18.562;2023-04-15T01:44:24;18.80;;;13.70;;
57023;SDS011;42916;54.346;18.562;2023-04-15T01:46:51;19.20;;;13.70;;
57023;SDS011;42916;54.346;18.562;2023-04-15T01:49:17;19.70;;;14.60;;
57023;SDS011;42916;54.346;18.562;2023-04-15T01:51:44;23.20;;;14.00;;
57023;SDS011;42916;54.346;18.562;2023-04-15T01:54:12;19.00;;;13.60;;
57023;SDS011;42916;54.346;18.562;2023-04-15T01:56:53;18.00;;;13.60;;
57023;SDS011;42916;54.346;18.562;2023-04-15T01:59:31;20.60;;;13.60;;
57023;SDS011;42916;54.346;18.562;2023-04-15T02:02:03;20.70;;;14.30;;
57023;SDS011;42916;54.346;18.562;2023-04-15T02:04:30;19.60;;;14.20;;
57023;SDS011;42916;54.346;18.562;2023-04-15T02:06:59;20.90;;;14.40;;
57023;SDS011;42916;54.346;18.562;2023-04-15T02:09:28;17.30;;;14.10;;
57023;SDS011;42916;54.346;18.562;2023-04-15T02:14:34;20.60;;;14.40;;
57023;SDS011;42916;54.346;18.562;2023-04-15T02:17:01;20.50;;;14.30;;
57023;SDS011;42916;54.346;18.562;2023-04-15T02:19:35;18.10;;;13.40;;
57023;SDS011;42916;54.346;18.562;2023-04-15T02:22:03;21.30;;;14.40;;
57023;SDS011;42916;54.346;18.562;2023-04-15T02:24:30;18.00;;;13.20;;
57023;SDS011;42916;54.346;18.562;2023-04-15T02:26:57;19.80;;;14.20;;
57023;SDS011;42916;54.346;18.562;2023-04-15T02:29:23;20.70;;;15.10;;
57023;SDS011;42916;54.346;18.562;2023-04-15T02:31:53;21.80;;;14.50;;
57023;SDS011;42916;54.346;18.562;2023-04-15T02:34:26;19.00;;;13.90;;
57023;SDS011;42916;54.346;18.562;2023-04-15T02:36:53;19.00;;;13.60;;
57023;SDS011;42916;54.346;18.562;2023-04-15T02:39:22;22.90;;;13.80;;
57023;SDS011;42916;54.346;18.562;2023-04-15T02:41:49;18.70;;;13.70;;
57023;SDS011;42916;54.346;18.562;2023-04-15T02:44:19;18.60;;;13.90;;
57023;SDS011;42916;54.346;18.562;2023-04-15T02:46:47;21.80;;;13.40;;
57023;SDS011;42916;54.346;18.562;2023-04-15T02:49:16;18.80;;;13.00;;
57023;SDS011;42916;54.346;18.562;2023-04-15T02:51:43;18.20;;;12.10;;
57023;SDS011;42916;54.346;18.562;2023-04-15T02:54:15;18.40;;;12.90;;
57023;SDS011;42916;54.346;18.562;2023-04-15T02:56:43;22.70;;;13.80;;
57023;SDS011;42916;54.346;18.562;2023-04-15T02:59:10;20.80;;;13.70;;
57023;SDS011;42916;54.346;18.562;2023-04-15T03:05:38;19.40;;;13.20;;
57023;SDS011;42916;54.346;18.562;2023-04-15T03:08:05;18.30;;;12.30;;
57023;SDS011;42916;54.346;18.562;2023-04-15T03:10:32;18.50;;;11.80;;
57023;SDS011;42916;54.346;18.562;2023-04-15T03:12:58;18.70;;;13.20;;
57023;SDS011;42916;54.346;18.562;2023-04-15T03:15:26;19.80;;;14.60;;
57023;SDS011;42916;54.346;18.562;2023-04-15T03:17:54;22.00;;;14.50;;
57023;SDS011;42916;54.346;18.562;2023-04-15T03:20:20;20.50;;;13.40;;
57023;SDS011;42916;54.346;18.562;2023-04-15T03:22:48;19.10;;;14.10;;
57023;SDS011;42916;54.346;18.562;2023-04-15T03:25:15;17.90;;;12.70;;
57023;SDS011;42916;54.346;18.562;2023-04-15T03:27:42;16.90;;;12.90;;
57023;SDS011;42916;54.346;18.562;2023-04-15T03:30:10;22.00;;;14.00;;
57023;SDS011;42916;54.346;18.562;2023-04-15T03:32:37;18.30;;;13.70;;
57023;SDS011;42916;54.346;18.562;2023-04-15T03:35:06;18.80;;;13.40;;
57023;SDS011;42916;54.346;18.562;2023-04-15T03:37:33;20.00;;;14.20;;
57023;SDS011;42916;54.346;18.562;2023-04-15T03:40:00;20.50;;;13.50;;
57023;SDS011;42916;54.346;18.562;2023-04-15T03:42:27;21.00;;;13.10;;
57023;SDS011;42916;54.346;18.562;2023-04-15T03:44:54;18.80;;;13.50;;
57023;SDS011;42916;54.346;18.562;2023-04-15T03:47:21;19.90;;;14.10;;
57023;SDS011;42916;54.346;18.562;2023-04-15T03:49:48;19.10;;;13.50;;
57023;SDS011;42916;54.346;18.562;2023-04-15T03:52:14;18.90;;;14.00;;
57023;SDS011;42916;54.346;18.562;2023-04-15T03:54:41;21.40;;;13.50;;
57023;SDS011;42916;54.346;18.562;2023-04-15T03:57:08;19.80;;;13.70;;
57023;SDS011;42916;54.346;18.562;2023-04-15T03:59:35;19.40;;;13.80;;
57023;SDS011;42916;54.346;18.562;2023-04-15T04:02:01;20.60;;;13.70;;
57023;SDS011;42916;54.346;18.562;2023-04-15T04:04:28;17.80;;;12.90;;
57023;SDS011;42916;54.346;18.562;2023-04-15T04:06:55;20.40;;;14.20;;
57023;SDS011;42916;54.346;18.562;2023-04-15T04:09:21;20.90;;;13.60;;
57023;SDS011;42916;54.346;18.562;2023-04-15T04:11:48;16.50;;;12.90;;
57023;SDS011;42916;54.346;18.562;2023-04-15T04:14:15;19.00;;;13.50;;
57023;SDS011;42916;54.346;18.562;2023-04-15T04:16:41;21.40;;;14.80;;
57023;SDS011;42916;54.346;18.562;2023-04-15T04:19:08;21.70;;;14.10;;
57023;SDS011;42916;54.346;18.562;2023-04-15T04:21:35;21.90;;;15.30;;
57023;SDS011;42916;54.346;18.562;2023-04-15T04:24:02;23.00;;;14.30;;
57023;SDS011;42916;54.346;18.562;2023-04-15T04:26:28;24.00;;;15.10;;
57023;SDS011;42916;54.346;18.562;2023-04-15T04:28:55;18.30;;;14.10;;
57023;SDS011;42916;54.346;18.562;2023-04-15T04:31:22;24.00;;;16.00;;
57023;SDS011;42916;54.346;18.562;2023-04-15T04:33:49;23.40;;;13.40;;
57023;SDS011;42916;54.346;18.562;2023-04-15T04:36:15;18.70;;;13.50;;
57023;SDS011;42916;54.346;18.562;2023-04-15T04:38:42;23.90;;;14.70;;
57023;SDS011;42916;54.346;18.562;2023-04-15T04:41:09;24.60;;;14.60;;
57023;SDS011;42916;54.346;18.562;2023-04-15T04:43:36;20.70;;;13.90;;
57023;SDS011;42916;54.346;18.562;2023-04-15T04:46:02;18.60;;;13.90;;
57023;SDS011;42916;54.346;18.562;2023-04-15T04:48:29;21.90;;;14.20;;
57023;SDS011;42916;54.346;18.562;2023-04-15T04:50:56;19.10;;;13.30;;
57023;SDS011;42916;54.346;18.562;2023-04-15T04:53:23;19.60;;;14.00;;
57023;SDS011;42916;54.346;18.562;2023-04-15T04:55:49;23.00;;;13.80;;
57023;SDS011;42916;54.346;18.562;2023-04-15T04:58:16;22.50;;;13.70;;
57023;SDS011;42916;54.346;18.562;2023-04-15T05:00:43;23.20;;;14.70;;
57023;SDS011;42916;54.346;18.562;2023-04-15T05:03:10;21.20;;;14.00;;
57023;SDS011;42916;54.346;18.562;2023-04-15T05:05:36;20.60;;;14.30;;
57023;SDS011;42916;54.346;18.562;2023-04-15T05:08:06;18.80;;;12.80;;
57023;SDS011;42916;54.346;18.562;2023-04-15T05:10:33;17.70;;;12.70;;
57023;SDS011;42916;54.346;18.562;2023-04-15T05:13:00;18.40;;;13.60;;
57023;SDS011;42916;54.346;18.562;2023-04-15T05:15:26;22.50;;;15.10;;
57023;SDS011;42916;54.346;18.562;2023-04-15T05:17:53;20.40;;;14.40;;
57023;SDS011;42916;54.346;18.562;2023-04-15T05:20:20;17.60;;;13.50;;
57023;SDS011;42916;54.346;18.562;2023-04-15T05:22:47;19.50;;;14.10;;
57023;SDS011;42916;54.346;18.562;2023-04-15T05:25:13;19.80;;;12.90;;
57023;SDS011;42916;54.346;18.562;2023-04-15T05:27:40;18.80;;;13.00;;
57023;SDS011;42916;54.346;18.562;2023-04-15T05:30:07;17.00;;;13.20;;
57023;SDS011;42916;54.346;18.562;2023-04-15T05:32:35;22.00;;;13.00;;
57023;SDS011;42916;54.346;18.562;2023-04-15T05:35:02;19.90;;;13.40;;
57023;SDS011;42916;54.346;18.562;2023-04-15T05:37:29;19.00;;;13.50;;
57023;SDS011;42916;54.346;18.562;2023-04-15T05:39:55;19.70;;;13.10;;
57023;SDS011;42916;54.346;18.562;2023-04-15T05:42:22;21.40;;;13.00;;
57023;SDS011;42916;54.346;18.562;2023-04-15T05:44:49;18.60;;;13.60;;
57023;SDS011;42916;54.346;18.562;2023-04-15T05:47:16;17.20;;;12.20;;
57023;SDS011;42916;54.346;18.562;2023-04-15T05:49:43;23.00;;;14.50;;
57023;SDS011;42916;54.346;18.562;2023-04-15T05:52:09;21.60;;;14.00;;
57023;SDS011;42916;54.346;18.562;2023-04-15T05:54:36;20.70;;;14.10;;
57023;SDS011;42916;54.346;18.562;2023-04-15T05:57:03;17.70;;;13.50;;
57023;SDS011;42916;54.346;18.562;2023-04-15T05:59:30;21.60;;;13.70;;
57023;SDS011;42916;54.346;18.562;2023-04-15T06:01:57;20.80;;;13.90;;
57023;SDS011;42916;54.346;18.562;2023-04-15T06:04:23;17.10;;;13.10;;
57023;SDS011;42916;54.346;18.562;2023-04-15T06:06:50;17.30;;;11.80;;
57023;SDS011;42916;54.346;18.562;2023-04-15T06:09:17;20.80;;;14.30;;
57023;SDS011;42916;54.346;18.562;2023-04-15T06:11:44;17.10;;;13.80;;
57023;SDS011;42916;54.346;18.562;2023-04-15T06:14:10;19.00;;;14.50;;
57023;SDS011;42916;54.346;18.562;2023-04-15T06:16:37;17.50;;;14.10;;
57023;SDS011;42916;54.346;18.562;2023-04-15T06:19:04;17.40;;;11.90;;
57023;SDS011;42916;54.346;18.562;2023-04-15T06:21:31;16.90;;;12.60;;
57023;SDS011;42916;54.346;18.562;2023-04-15T06:23:58;19.80;;;14.10;;
57023;SDS011;42916;54.346;18.562;2023-04-15T06:26:28;23.60;;;14.40;;
57023;SDS011;42916;54.346;18.562;2023-04-15T06:28:55;17.60;;;13.60;;
57023;SDS011;42916;54.346;18.562;2023-04-15T06:31:22;20.50;;;13.80;;
57023;SDS011;42916;54.346;18.562;2023-04-15T06:33:49;19.30;;;13.20;;
57023;SDS011;42916;54.346;18.562;2023-04-15T06:36:16;20.30;;;14.10;;
57023;SDS011;42916;54.346;18.562;2023-04-15T06:38:42;21.20;;;15.30;;
57023;SDS011;42916;54.346;18.562;2023-04-15T06:41:09;16.30;;;13.50;;
57023;SDS011;42916;54.346;18.562;2023-04-15T06:43:36;19.80;;;14.30;;
57023;SDS011;42916;54.346;18.562;2023-04-15T06:46:03;24.60;;;14.80;;
57023;SDS011;42916;54.346;18.562;2023-04-15T06:48:30;17.50;;;13.00;;
57023;SDS011;42916;54.346;18.562;2023-04-15T06:50:56;18.40;;;12.90;;
57023;SDS011;42916;54.346;18.562;2023-04-15T06:53:24;20.00;;;13.70;;
57023;SDS011;42916;54.346;18.562;2023-04-15T06:58:20;17.90;;;14.00;;
57023;SDS011;42916;54.346;18.562;2023-04-15T07:00:47;17.80;;;12.70;;
57023;SDS011;42916;54.346;18.562;2023-04-15T07:03:14;18.80;;;13.70;;
57023;SDS011;42916;54.346;18.562;2023-04-15T07:05:41;21.70;;;13.30;;
57023;SDS011;42916;54.346;18.562;2023-04-15T07:08:07;19.80;;;13.60;;
57023;SDS011;42916;54.346;18.562;2023-04-15T07:10:34;24.10;;;13.30;;
57023;SDS011;42916;54.346;18.562;2023-04-15T07:13:01;18.40;;;12.10;;
57023;SDS011;42916;54.346;18.562;2023-04-15T07:15:28;17.90;;;13.20;;
57023;SDS011;42916;54.346;18.562;2023-04-15T07:17:55;23.60;;;13.90;;
57023;SDS011;42916;54.346;18.562;2023-04-15T07:20:22;22.70;;;13.60;;
57023;SDS011;42916;54.346;18.562;2023-04-15T07:22:49;18.70;;;12.70;;
57023;SDS011;42916;54.346;18.562;2023-04-15T07:25:15;17.20;;;13.00;;
57023;SDS011;42916;54.346;18.562;2023-04-15T07:27:43;19.30;;;12.20;;
57023;SDS011;42916;54.346;18.562;2023-04-15T07:30:10;17.10;;;12.10;;
57023;SDS011;42916;54.346;18.562;2023-04-15T07:32:38;17.80;;;12.50;;
57023;SDS011;42916;54.346;18.562;2023-04-15T07:35:05;15.50;;;11.30;;
57023;SDS011;42916;54.346;18.562;2023-04-15T07:37:32;19.40;;;12.20;;
57023;SDS011;42916;54.346;18.562;2023-04-15T07:39:58;23.20;;;12.50;;
57023;SDS011;42916;54.346;18.562;2023-04-15T07:42:25;16.30;;;11.50;;
57023;SDS011;42916;54.346;18.562;2023-04-15T07:44:52;17.50;;;12.10;;
57023;SDS011;42916;54.346;18.562;2023-04-15T07:47:19;20.20;;;12.30;;
57023;SDS011;42916;54.346;18.562;2023-04-15T07:49:46;15.10;;;11.30;;
57023;SDS011;42916;54.346;18.562;2023-04-15T07:52:13;17.60;;;11.70;;
57023;SDS011;42916;54.346;18.562;2023-04-15T07:54:39;15.90;;;11.30;;
57023;SDS011;42916;54.346;18.562;2023-04-15T07:57:07;22.70;;;11.70;;
57023;SDS011;42916;54.346;18.562;2023-04-15T07:59:34;18.20;;;12.10;;
57023;SDS011;42916;54.346;18.562;2023-04-15T08:02:01;14.10;;;11.70;;
57023;SDS011;42916;54.346;18.562;2023-04-15T08:04:27;16.40;;;11.70;;
57023;SDS011;42916;54.346;18.562;2023-04-15T08:06:54;15.60;;;11.70;;
57023;SDS011;42916;54.346;18.562;2023-04-15T08:09:21;16.30;;;11.80;;
57023;SDS011;42916;54.346;18.562;2023-04-15T08:11:48;17.20;;;11.30;;
57023;SDS011;42916;54.346;18.562;2023-04-15T08:14:16;15.40;;;10.40;;
57023;SDS011;42916;54.346;18.562;2023-04-15T08:16:43;15.30;;;10.60;;
57023;SDS011;42916;54.346;18.562;2023-04-15T08:19:09;16.80;;;11.60;;
57023;SDS011;42916;54.346;18.562;2023-04-15T08:21:36;15.60;;;11.30;;
57023;SDS011;42916;54.346;18.562;2023-04-15T08:24:03;16.20;;;10.90;;
57023;SDS011;42916;54.346;18.562;2023-04-15T08:26:31;18.30;;;11.60;;
57023;SDS011;42916;54.346;18.562;2023-04-15T08:28:57;14.50;;;10.70;;
57023;SDS011;42916;54.346;18.562;2023-04-15T08:31:25;17.20;;;11.40;;
57023;SDS011;42916;54.346;18.562;2023-04-15T08:33:52;15.50;;;10.80;;
57023;SDS011;42916;54.346;18.562;2023-04-15T08:36:20;15.30;;;11.60;;
57023;SDS011;42916;54.346;18.562;2023-04-15T08:38:46;19.60;;;11.40;;
57023;SDS011;42916;54.346;18.562;2023-04-15T08:41:21;17.00;;;11.70;;
57023;SDS011;42916;54.346;18.562;2023-04-15T08:44:07;14.00;;;11.30;;
57023;SDS011;42916;54.346;18.562;2023-04-15T08:46:35;15.00;;;10.30;;
57023;SDS011;42916;54.346;18.562;2023-04-15T08:49:02;13.50;;;10.00;;
57023;SDS011;42916;54.346;18.562;2023-04-15T08:51:30;14.80;;;10.10;;
57023;SDS011;42916;54.346;18.562;2023-04-15T08:53:59;14.70;;;10.50;;
57023;SDS011;42916;54.346;18.562;2023-04-15T08:56:26;17.90;;;11.00;;
57023;SDS011;42916;54.346;18.562;2023-04-15T08:58:53;16.80;;;11.00;;
57023;SDS011;42916;54.346;18.562;2023-04-15T09:01:20;16.90;;;10.80;;
57023;SDS011;42916;54.346;18.562;2023-04-15T09:03:48;12.80;;;10.00;;
57023;SDS011;42916;54.346;18.562;2023-04-15T09:06:20;15.90;;;11.20;;
57023;SDS011;42916;54.346;18.562;2023-04-15T09:08:48;19.20;;;11.10;;
57023;SDS011;42916;54.346;18.562;2023-04-15T09:11:16;14.80;;;10.60;;
57023;SDS011;42916;54.346;18.562;2023-04-15T09:13:43;15.20;;;10.80;;
57023;SDS011;42916;54.346;18.562;2023-04-15T09:16:10;15.10;;;10.20;;
57023;SDS011;42916;54.346;18.562;2023-04-15T09:18:38;17.40;;;11.30;;
57023;SDS011;42916;54.346;18.562;2023-04-15T09:21:09;13.80;;;10.30;;
57023;SDS011;42916;54.346;18.562;2023-04-15T09:23:39;15.30;;;10.70;;
57023;SDS011;42916;54.346;18.562;2023-04-15T09:26:19;16.50;;;10.40;;
57023;SDS011;42916;54.346;18.562;2023-04-15T09:29:01;18.80;;;10.70;;
57023;SDS011;42916;54.346;18.562;2023-04-15T09:31:29;16.80;;;11.00;;
57023;SDS011;42916;54.346;18.562;2023-04-15T09:33:56;13.90;;;10.00;;
57023;SDS011;42916;54.346;18.562;2023-04-15T09:36:23;16.90;;;10.20;;
57023;SDS011;42916;54.346;18.562;2023-04-15T09:38:55;17.30;;;12.60;;
57023;SDS011;42916;54.346;18.562;2023-04-15T09:41:26;17.70;;;11.20;;
57023;SDS011;42916;54.346;18.562;2023-04-15T09:43:53;17.80;;;11.50;;
57023;SDS011;42916;54.346;18.562;2023-04-15T09:46:20;17.80;;;11.60;;
57023;SDS011;42916;54.346;18.562;2023-04-15T09:49:10;15.50;;;10.70;;
57023;SDS011;42916;54.346;18.562;2023-04-15T09:51:38;16.00;;;10.50;;
57023;SDS011;42916;54.346;18.562;2023-04-15T09:54:05;15.40;;;11.10;;
57023;SDS011;42916;54.346;18.562;2023-04-15T09:56:36;16.60;;;10.50;;
57023;SDS011;42916;54.346;18.562;2023-04-15T09:59:07;17.70;;;11.30;;
57023;SDS011;42916;54.346;18.562;2023-04-15T10:01:34;19.40;;;10.60;;
57023;SDS011;42916;54.346;18.562;2023-04-15T10:04:02;16.60;;;9.70;;
57023;SDS011;42916;54.346;18.562;2023-04-15T10:06:30;16.50;;;10.10;;
57023;SDS011;42916;54.346;18.562;2023-04-15T10:08:57;14.50;;;10.60;;
57023;SDS011;42916;54.346;18.562;2023-04-15T10:11:27;15.20;;;9.90;;
57023;SDS011;42916;54.346;18.562;2023-04-15T10:13:55;13.40;;;9.50;;
57023;SDS011;42916;54.346;18.562;2023-04-15T10:16:25;14.60;;;9.60;;
57023;SDS011;42916;54.346;18.562;2023-04-15T10:18:56;16.90;;;10.10;;
57023;SDS011;42916;54.346;18.562;2023-04-15T10:21:27;14.60;;;9.60;;
57023;SDS011;42916;54.346;18.562;2023-04-15T10:23:56;12.80;;;8.20;;
57023;SDS011;42916;54.346;18.562;2023-04-15T10:26:23;12.10;;;9.00;;
57023;SDS011;42916;54.346;18.562;2023-04-15T10:28:51;13.10;;;8.80;;
57023;SDS011;42916;54.346;18.562;2023-04-15T10:31:19;17.20;;;9.50;;
57023;SDS011;42916;54.346;18.562;2023-04-15T10:33:47;14.50;;;9.60;;
57023;SDS011;42916;54.346;18.562;2023-04-15T10:36:15;11.80;;;7.90;;
57023;SDS011;42916;54.346;18.562;2023-04-15T10:38:44;14.90;;;8.90;;
57023;SDS011;42916;54.346;18.562;2023-04-15T10:41:18;12.70;;;9.00;;
57023;SDS011;42916;54.346;18.562;2023-04-15T10:43:50;12.50;;;9.20;;
57023;SDS011;42916;54.346;18.562;2023-04-15T10:46:36;15.50;;;8.80;;
57023;SDS011;42916;54.346;18.562;2023-04-15T10:51:39;12.70;;;8.40;;
57023;SDS011;42916;54.346;18.562;2023-04-15T10:54:08;13.00;;;9.50;;
57023;SDS011;42916;54.346;18.562;2023-04-15T10:56:41;15.90;;;9.10;;
57023;SDS011;42916;54.346;18.562;2023-04-15T10:59:10;14.70;;;8.70;;
57023;SDS011;42916;54.346;18.562;2023-04-15T11:01:53;14.70;;;8.80;;
57023;SDS011;42916;54.346;18.562;2023-04-15T11:12:43;12.20;;;9.00;;
57023;SDS011;42916;54.346;18.562;2023-04-15T11:15:31;12.40;;;8.30;;
57023;SDS011;42916;54.346;18.562;2023-04-15T11:20:37;12.90;;;9.00;;
57023;SDS011;42916;54.346;18.562;2023-04-15T11:23:08;14.80;;;8.80;;
57023;SDS011;42916;54.346;18.562;2023-04-15T11:25:35;13.60;;;9.40;;
57023;SDS011;42916;54.346;18.562;2023-04-15T11:28:05;13.70;;;9.00;;
57023;SDS011;42916;54.346;18.562;2023-04-15T11:30:34;13.50;;;8.90;;
57023;SDS011;42916;54.346;18.562;2023-04-15T11:33:06;14.60;;;9.40;;
57023;SDS011;42916;54.346;18.562;2023-04-15T11:35:35;13.20;;;9.00;;
57023;SDS011;42916;54.346;18.562;2023-04-15T11:38:08;12.30;;;8.30;;
57023;SDS011;42916;54.346;18.562;2023-04-15T11:40:42;12.70;;;8.00;;
57023;SDS011;42916;54.346;18.562;2023-04-15T11:43:16;13.70;;;8.60;;
57023;SDS011;42916;54.346;18.562;2023-04-15T11:48:18;11.50;;;8.50;;
57023;SDS011;42916;54.346;18.562;2023-04-15T11:50:51;12.60;;;8.60;;
57023;SDS011;42916;54.346;18.562;2023-04-15T11:53:22;13.00;;;9.30;;
57023;SDS011;42916;54.346;18.562;2023-04-15T11:55:51;11.20;;;7.80;;
57023;SDS011;42916;54.346;18.562;2023-04-15T11:58:22;13.10;;;8.40;;
57023;SDS011;42916;54.346;18.562;2023-04-15T12:00:57;13.60;;;8.20;;
57023;SDS011;42916;54.346;18.562;2023-04-15T12:03:26;12.70;;;7.40;;
57023;SDS011;42916;54.346;18.562;2023-04-15T12:11:39;11.30;;;8.50;;
57023;SDS011;42916;54.346;18.562;2023-04-15T12:14:26;13.70;;;8.50;;
57023;SDS011;42916;54.346;18.562;2023-04-15T12:16:58;11.90;;;8.80;;
57023;SDS011;42916;54.346;18.562;2023-04-15T12:19:33;14.10;;;8.20;;
57023;SDS011;42916;54.346;18.562;2023-04-15T12:22:05;11.90;;;8.80;;
57023;SDS011;42916;54.346;18.562;2023-04-15T12:24:39;13.20;;;8.90;;
57023;SDS011;42916;54.346;18.562;2023-04-15T12:27:12;11.20;;;8.40;;
57023;SDS011;42916;54.346;18.562;2023-04-15T12:29:41;13.70;;;8.30;;
57023;SDS011;42916;54.346;18.562;2023-04-15T12:32:12;14.70;;;9.10;;
57023;SDS011;42916;54.346;18.562;2023-04-15T12:34:40;17.40;;;10.60;;
57023;SDS011;42916;54.346;18.562;2023-04-15T12:37:15;15.60;;;9.20;;
57023;SDS011;42916;54.346;18.562;2023-04-15T12:39:42;14.20;;;8.70;;
57023;SDS011;42916;54.346;18.562;2023-04-15T12:42:11;11.90;;;8.80;;
57023;SDS011;42916;54.346;18.562;2023-04-15T12:44:38;11.30;;;8.30;;
57023;SDS011;42916;54.346;18.562;2023-04-15T12:47:06;14.00;;;8.70;;
57023;SDS011;42916;54.346;18.562;2023-04-15T12:49:34;16.80;;;9.50;;
57023;SDS011;42916;54.346;18.562;2023-04-15T12:52:01;13.40;;;9.30;;
57023;SDS011;42916;54.346;18.562;2023-04-15T12:54:29;11.80;;;9.30;;
57023;SDS011;42916;54.346;18.562;2023-04-15T12:56:56;14.10;;;9.50;;
57023;SDS011;42916;54.346;18.562;2023-04-15T12:59:24;13.20;;;9.40;;
57023;SDS011;42916;54.346;18.562;2023-04-15T13:01:51;14.10;;;8.80;;
57023;SDS011;42916;54.346;18.562;2023-04-15T13:04:19;12.00;;;7.70;;
57023;SDS011;42916;54.346;18.562;2023-04-15T13:06:46;14.70;;;9.60;;
57023;SDS011;42916;54.346;18.562;2023-04-15T13:09:13;14.90;;;9.70;;
57023;SDS011;42916;54.346;18.562;2023-04-15T13:11:40;14.20;;;9.40;;
57023;SDS011;42916;54.346;18.562;2023-04-15T13:14:08;16.70;;;8.70;;
57023;SDS011;42916;54.346;18.562;2023-04-15T13:19:03;11.80;;;8.60;;
57023;SDS011;42916;54.346;18.562;2023-04-15T13:21:31;11.90;;;8.20;;
57023;SDS011;42916;54.346;18.562;2023-04-15T13:24:00;13.70;;;8.80;;
57023;SDS011;42916;54.346;18.562;2023-04-15T13:26:27;14.40;;;9.40;;
57023;SDS011;42916;54.346;18.562;2023-04-15T13:28:54;12.30;;;8.10;;
57023;SDS011;42916;54.346;18.562;2023-04-15T13:31:21;13.00;;;8.20;;
57023;SDS011;42916;54.346;18.562;2023-04-15T13:33:48;10.50;;;8.20;;
57023;SDS011;42916;54.346;18.562;2023-04-15T13:36:15;14.60;;;8.60;;
57023;SDS011;42916;54.346;18.562;2023-04-15T13:38:41;12.00;;;8.80;;
57023;SDS011;42916;54.346;18.562;2023-04-15T13:41:08;11.60;;;8.60;;
57023;SDS011;42916;54.346;18.562;2023-04-15T13:43:35;12.00;;;8.10;;
57023;SDS011;42916;54.346;18.562;2023-04-15T13:46:03;11.20;;;8.10;;
57023;SDS011;42916;54.346;18.562;2023-04-15T13:48:29;11.80;;;9.00;;
57023;SDS011;42916;54.346;18.562;2023-04-15T13:50:57;14.20;;;8.90;;
57023;SDS011;42916;54.346;18.562;2023-04-15T13:53:23;13.70;;;9.40;;
57023;SDS011;42916;54.346;18.562;2023-04-15T13:55:50;14.00;;;9.50;;
57023;SDS011;42916;54.346;18.562;2023-04-15T13:58:17;14.60;;;9.80;;
57023;SDS011;42916;54.346;18.562;2023-04-15T14:00:44;14.20;;;10.00;;
57023;SDS011;42916;54.346;18.562;2023-04-15T14:03:10;14.00;;;9.80;;
57023;SDS011;42916;54.346;18.562;2023-04-15T14:05:37;15.90;;;10.20;;
57023;SDS011;42916;54.346;18.562;2023-04-15T14:08:04;15.30;;;8.10;;
57023;SDS011;42916;54.346;18.562;2023-04-15T14:10:31;11.60;;;8.40;;
57023;SDS011;42916;54.346;18.562;2023-04-15T14:12:58;14.30;;;9.00;;
57023;SDS011;42916;54.346;18.562;2023-04-15T14:15:24;13.70;;;9.40;;
57023;SDS011;42916;54.346;18.562;2023-04-15T14:17:51;13.50;;;9.00;;
57023;SDS011;42916;54.346;18.562;2023-04-15T14:20:18;14.30;;;8.90;;
57023;SDS011;42916;54.346;18.562;2023-04-15T14:22:45;12.80;;;9.30;;
57023;SDS011;42916;54.346;18.562;2023-04-15T14:25:11;14.70;;;9.20;;
57023;SDS011;42916;54.346;18.562;2023-04-15T14:27:38;13.80;;;8.00;;
57023;SDS011;42916;54.346;18.562;2023-04-15T14:30:05;12.30;;;8.30;;
57023;SDS011;42916;54.346;18.562;2023-04-15T14:32:32;15.40;;;9.60;;
57023;SDS011;42916;54.346;18.562;2023-04-15T14:34:59;12.90;;;7.80;;
57023;SDS011;42916;54.346;18.562;2023-04-15T14:37:26;14.50;;;9.50;;
57023;SDS011;42916;54.346;18.562;2023-04-15T14:39:52;15.90;;;10.30;;
57023;SDS011;42916;54.346;18.562;2023-04-15T14:42:19;18.80;;;11.40;;
57023;SDS011;42916;54.346;18.562;2023-04-15T14:44:46;18.70;;;9.90;;
57023;SDS011;42916;54.346;18.562;2023-04-15T14:47:13;17.20;;;11.00;;
57023;SDS011;42916;54.346;18.562;2023-04-15T14:49:40;16.00;;;9.00;;
57023;SDS011;42916;54.346;18.562;2023-04-15T14:52:06;15.80;;;9.50;;